sensor_id;sensor_type;location;lat;lon;timestamp;pressure;altitude;pressure_sealevel;temperature;humidity
57094;BME280;42970;50.996;3.706;2022-08-21T00:01:03;76481.31;;;-146.65;78.54
57094;BME280;42970;50.996;3.706;2022-08-21T00:03:29;76489.41;;;-146.65;78.93
57094;BME280;42970;50.996;3.706;2022-08-21T00:05:55;76499.50;;;-146.65;79.57
57094;BME280;42970;50.996;3.706;2022-08-21T00:08:20;76505.53;;;-146.65;79.80
57094;BME280;42970;50.996;3.706;2022-08-21T00:10:46;76507.56;;;-146.65;80.13
57094;BME280;42970;50.996;3.706;2022-08-21T00:13:12;76513.59;;;-146.65;80.46
57094;BME280;42970;50.996;3.706;2022-08-21T00:15:40;76515.63;;;-146.65;80.19
57094;BME280;42970;50.996;3.706;2022-08-21T00:18:07;76521.69;;;-146.65;80.41
57094;BME280;42970;50.996;3.706;2022-08-21T00:20:33;76517.66;;;-146.65;80.42
57094;BME280;42970;50.996;3.706;2022-08-21T00:22:59;76517.66;;;-146.65;80.24
57094;BME280;42970;50.996;3.706;2022-08-21T00:25:25;76521.69;;;-146.65;80.66
57094;BME280;42970;50.996;3.706;2022-08-21T00:27:50;76525.72;;;-146.65;80.41
57094;BME280;42970;50.996;3.706;2022-08-21T00:30:17;76531.75;;;-146.65;81.00
57094;BME280;42970;50.996;3.706;2022-08-21T00:32:44;76525.72;;;-146.65;80.79
57094;BME280;42970;50.996;3.706;2022-08-21T00:35:13;76533.78;;;-146.65;80.52
57094;BME280;42970;50.996;3.706;2022-08-21T00:37:40;76537.81;;;-146.65;80.90
57094;BME280;42970;50.996;3.706;2022-08-21T00:40:09;76529.75;;;-146.65;81.26
57094;BME280;42970;50.996;3.706;2022-08-21T00:42:36;76529.75;;;-146.65;81.61
57094;BME280;42970;50.996;3.706;2022-08-21T00:45:02;76525.72;;;-146.65;81.81
57094;BME280;42970;50.996;3.706;2022-08-21T00:47:28;76531.75;;;-146.65;82.06
57094;BME280;42970;50.996;3.706;2022-08-21T00:49:53;76529.75;;;-146.65;82.19
57094;BME280;42970;50.996;3.706;2022-08-21T00:52:23;76535.81;;;-146.65;81.92
57094;BME280;42970;50.996;3.706;2022-08-21T00:54:50;76545.88;;;-146.65;82.13
57094;BME280;42970;50.996;3.706;2022-08-21T00:57:25;76564.03;;;-146.65;82.64
57094;BME280;42970;50.996;3.706;2022-08-21T00:59:53;76584.22;;;-146.65;82.65
57094;BME280;42970;50.996;3.706;2022-08-21T01:02:21;76582.22;;;-146.65;83.08
57094;BME280;42970;50.996;3.706;2022-08-21T01:04:47;76590.28;;;-146.65;83.20
57094;BME280;42970;50.996;3.706;2022-08-21T01:07:12;76598.34;;;-146.65;83.19
57094;BME280;42970;50.996;3.706;2022-08-21T01:09:38;76598.34;;;-146.65;83.02
57094;BME280;42970;50.996;3.706;2022-08-21T01:12:04;76602.38;;;-146.65;83.25
57094;BME280;42970;50.996;3.706;2022-08-21T01:14:31;76610.44;;;-146.65;83.43
57094;BME280;42970;50.996;3.706;2022-08-21T01:16:57;76604.41;;;-146.65;84.18
57094;BME280;42970;50.996;3.706;2022-08-21T01:19:25;76608.44;;;-146.65;84.79
57094;BME280;42970;50.996;3.706;2022-08-21T01:21:51;76614.50;;;-146.65;84.86
57094;BME280;42970;50.996;3.706;2022-08-21T01:24:17;76616.50;;;-146.65;84.57
57094;BME280;42970;50.996;3.706;2022-08-21T01:26:43;76626.59;;;-146.65;83.95
57094;BME280;42970;50.996;3.706;2022-08-21T01:31:48;76632.66;;;-146.65;83.89
57094;BME280;42970;50.996;3.706;2022-08-21T01:34:14;76624.56;;;-146.65;83.53
57094;BME280;42970;50.996;3.706;2022-08-21T01:36:41;76630.63;;;-146.65;83.50
57094;BME280;42970;50.996;3.706;2022-08-21T01:39:07;76634.66;;;-146.65;83.52
57094;BME280;42970;50.996;3.706;2022-08-21T01:41:33;76630.63;;;-146.65;83.84
57094;BME280;42970;50.996;3.706;2022-08-21T01:43:58;76634.66;;;-146.65;83.83
57094;BME280;42970;50.996;3.706;2022-08-21T01:46:24;76638.69;;;-146.65;84.01
57094;BME280;42970;50.996;3.706;2022-08-21T01:48:50;76640.72;;;-146.65;84.17
57094;BME280;42970;50.996;3.706;2022-08-21T01:51:15;76652.81;;;-146.65;84.19
57094;BME280;42970;50.996;3.706;2022-08-21T01:53:41;76648.78;;;-146.65;84.54
57094;BME280;42970;50.996;3.706;2022-08-21T01:56:09;76646.75;;;-146.65;84.49
57094;BME280;42970;50.996;3.706;2022-08-21T01:58:35;76642.72;;;-146.65;84.79
57094;BME280;42970;50.996;3.706;2022-08-21T02:01:01;76638.69;;;-146.65;84.90
57094;BME280;42970;50.996;3.706;2022-08-21T02:03:28;76630.63;;;-146.65;85.37
57094;BME280;42970;50.996;3.706;2022-08-21T02:05:53;76630.63;;;-146.65;84.86
57094;BME280;42970;50.996;3.706;2022-08-21T02:08:19;76636.69;;;-146.65;85.38
57094;BME280;42970;50.996;3.706;2022-08-21T02:10:49;76642.72;;;-146.65;85.43
57094;BME280;42970;50.996;3.706;2022-08-21T02:13:15;76648.78;;;-146.65;85.69
57094;BME280;42970;50.996;3.706;2022-08-21T02:15:41;76650.81;;;-146.65;85.03
57094;BME280;42970;50.996;3.706;2022-08-21T02:18:06;76648.78;;;-146.65;85.39
57094;BME280;42970;50.996;3.706;2022-08-21T02:20:44;76642.72;;;-146.65;85.37
57094;BME280;42970;50.996;3.706;2022-08-21T02:23:11;76638.69;;;-146.65;85.40
57094;BME280;42970;50.996;3.706;2022-08-21T02:25:37;76638.69;;;-146.65;85.43
57094;BME280;42970;50.996;3.706;2022-08-21T02:28:05;76640.72;;;-146.65;85.60
57094;BME280;42970;50.996;3.706;2022-08-21T02:30:34;76646.75;;;-146.65;85.58
57094;BME280;42970;50.996;3.706;2022-08-21T02:33:02;76650.81;;;-146.65;85.83
57094;BME280;42970;50.996;3.706;2022-08-21T02:35:27;76642.72;;;-146.65;85.95
57094;BME280;42970;50.996;3.706;2022-08-21T02:37:56;76642.72;;;-146.65;86.16
57094;BME280;42970;50.996;3.706;2022-08-21T02:40:25;76652.81;;;-146.65;86.45
57094;BME280;42970;50.996;3.706;2022-08-21T02:42:51;76662.91;;;-146.65;86.19
57094;BME280;42970;50.996;3.706;2022-08-21T02:45:18;76656.84;;;-146.65;86.61
57094;BME280;42970;50.996;3.706;2022-08-21T02:47:48;76654.84;;;-146.65;86.41
57094;BME280;42970;50.996;3.706;2022-08-21T02:50:18;76652.81;;;-146.65;86.51
57094;BME280;42970;50.996;3.706;2022-08-21T02:52:44;76654.84;;;-146.65;86.59
57094;BME280;42970;50.996;3.706;2022-08-21T02:55:10;76664.94;;;-146.65;86.75
57094;BME280;42970;50.996;3.706;2022-08-21T02:57:35;76660.88;;;-146.65;86.43
57094;BME280;42970;50.996;3.706;2022-08-21T03:00:02;76666.94;;;-146.65;86.18
57094;BME280;42970;50.996;3.706;2022-08-21T03:02:27;76666.94;;;-146.65;86.36
57094;BME280;42970;50.996;3.706;2022-08-21T03:04:52;76666.94;;;-146.65;86.03
57094;BME280;42970;50.996;3.706;2022-08-21T03:07:18;76664.94;;;-146.65;86.46
57094;BME280;42970;50.996;3.706;2022-08-21T03:09:43;76658.88;;;-146.65;86.84
57094;BME280;42970;50.996;3.706;2022-08-21T03:12:08;76656.84;;;-146.65;86.81
57094;BME280;42970;50.996;3.706;2022-08-21T03:14:34;76652.81;;;-146.65;86.64
57094;BME280;42970;50.996;3.706;2022-08-21T03:16:59;76646.75;;;-146.65;86.52
57094;BME280;42970;50.996;3.706;2022-08-21T03:19:25;76640.72;;;-146.65;86.81
57094;BME280;42970;50.996;3.706;2022-08-21T03:21:50;76634.66;;;-146.65;86.87
57094;BME280;42970;50.996;3.706;2022-08-21T03:24:15;76630.63;;;-146.65;87.02
57094;BME280;42970;50.996;3.706;2022-08-21T03:26:41;76632.66;;;-146.65;87.26
57094;BME280;42970;50.996;3.706;2022-08-21T03:29:06;76634.66;;;-146.65;87.52
57094;BME280;42970;50.996;3.706;2022-08-21T03:31:32;76626.59;;;-146.65;87.48
57094;BME280;42970;50.996;3.706;2022-08-21T03:33:58;76626.59;;;-146.65;87.75
57094;BME280;42970;50.996;3.706;2022-08-21T03:36:24;76622.56;;;-146.65;87.85
57094;BME280;42970;50.996;3.706;2022-08-21T03:38:50;76622.56;;;-146.65;87.58
57094;BME280;42970;50.996;3.706;2022-08-21T03:41:15;76622.56;;;-146.65;87.52
57094;BME280;42970;50.996;3.706;2022-08-21T03:43:41;76622.56;;;-146.65;87.82
57094;BME280;42970;50.996;3.706;2022-08-21T03:46:06;76622.56;;;-146.65;88.13
57094;BME280;42970;50.996;3.706;2022-08-21T03:48:33;76618.53;;;-146.65;88.05
57094;BME280;42970;50.996;3.706;2022-08-21T03:50:58;76608.44;;;-146.65;88.64
57094;BME280;42970;50.996;3.706;2022-08-21T03:53:24;76614.50;;;-146.65;88.41
57094;BME280;42970;50.996;3.706;2022-08-21T03:55:51;76612.47;;;-146.65;88.65
57094;BME280;42970;50.996;3.706;2022-08-21T03:58:21;76616.50;;;-146.65;88.83
57094;BME280;42970;50.996;3.706;2022-08-21T04:00:49;76620.53;;;-146.65;88.80
57094;BME280;42970;50.996;3.706;2022-08-21T04:03:16;76618.53;;;-146.65;88.73
57094;BME280;42970;50.996;3.706;2022-08-21T04:05:42;76622.56;;;-146.65;88.99
57094;BME280;42970;50.996;3.706;2022-08-21T04:08:08;76620.53;;;-146.65;89.16
57094;BME280;42970;50.996;3.706;2022-08-21T04:10:35;76622.56;;;-146.65;89.58
57094;BME280;42970;50.996;3.706;2022-08-21T04:13:01;76624.56;;;-146.65;89.55
57094;BME280;42970;50.996;3.706;2022-08-21T04:15:27;76622.56;;;-146.65;89.40
57094;BME280;42970;50.996;3.706;2022-08-21T04:17:52;76624.56;;;-146.65;89.45
57094;BME280;42970;50.996;3.706;2022-08-21T04:20:19;76628.59;;;-146.65;89.32
57094;BME280;42970;50.996;3.706;2022-08-21T04:22:45;76620.53;;;-146.65;89.30
57094;BME280;42970;50.996;3.706;2022-08-21T04:25:12;76610.44;;;-146.65;89.38
57094;BME280;42970;50.996;3.706;2022-08-21T04:27:38;76598.34;;;-146.65;88.85
57094;BME280;42970;50.996;3.706;2022-08-21T04:30:06;76598.34;;;-146.65;88.90
57094;BME280;42970;50.996;3.706;2022-08-21T04:32:31;76600.38;;;-146.65;89.07
57094;BME280;42970;50.996;3.706;2022-08-21T04:35:02;76586.25;;;-146.65;88.98
57094;BME280;42970;50.996;3.706;2022-08-21T04:37:29;76590.28;;;-146.65;88.62
57094;BME280;42970;50.996;3.706;2022-08-21T04:39:55;76590.28;;;-146.65;88.73
57094;BME280;42970;50.996;3.706;2022-08-21T04:42:23;76586.25;;;-146.65;88.55
57094;BME280;42970;50.996;3.706;2022-08-21T04:44:49;76580.19;;;-146.65;88.50
57094;BME280;42970;50.996;3.706;2022-08-21T04:47:14;76588.25;;;-146.65;88.54
57094;BME280;42970;50.996;3.706;2022-08-21T04:49:42;76594.31;;;-146.65;88.38
57094;BME280;42970;50.996;3.706;2022-08-21T04:52:08;76602.38;;;-146.65;88.67
57094;BME280;42970;50.996;3.706;2022-08-21T04:54:33;76592.28;;;-146.65;88.75
57094;BME280;42970;50.996;3.706;2022-08-21T04:57:02;76592.28;;;-146.65;88.81
57094;BME280;42970;50.996;3.706;2022-08-21T04:59:54;76598.34;;;-146.65;88.93
57094;BME280;42970;50.996;3.706;2022-08-21T05:02:20;76602.38;;;-146.65;88.97
57094;BME280;42970;50.996;3.706;2022-08-21T05:04:51;76594.31;;;-146.65;88.95
57094;BME280;42970;50.996;3.706;2022-08-21T05:07:22;76580.19;;;-146.65;87.95
57094;BME280;42970;50.996;3.706;2022-08-21T05:09:50;76584.22;;;-146.65;87.95
57094;BME280;42970;50.996;3.706;2022-08-21T05:12:16;76590.28;;;-146.65;88.17
57094;BME280;42970;50.996;3.706;2022-08-21T05:14:42;76582.22;;;-146.65;88.00
57094;BME280;42970;50.996;3.706;2022-08-21T05:17:08;76578.16;;;-146.65;88.10
57094;BME280;42970;50.996;3.706;2022-08-21T05:19:34;76578.16;;;-146.65;88.11
57094;BME280;42970;50.996;3.706;2022-08-21T05:22:00;76580.19;;;-146.65;87.76
57094;BME280;42970;50.996;3.706;2022-08-21T05:24:26;76576.16;;;-146.65;88.14
57094;BME280;42970;50.996;3.706;2022-08-21T05:26:51;76568.09;;;-146.65;88.12
57094;BME280;42970;50.996;3.706;2022-08-21T05:29:17;76553.97;;;-146.65;87.27
57094;BME280;42970;50.996;3.706;2022-08-21T05:31:43;76547.91;;;-146.65;87.05
57094;BME280;42970;50.996;3.706;2022-08-21T05:34:08;76553.97;;;-146.65;87.22
57094;BME280;42970;50.996;3.706;2022-08-21T05:36:33;76541.84;;;-146.65;87.22
57094;BME280;42970;50.996;3.706;2022-08-21T05:38:59;76529.75;;;-146.65;86.86
57094;BME280;42970;50.996;3.706;2022-08-21T05:41:24;76517.66;;;-146.65;86.10
57094;BME280;42970;50.996;3.706;2022-08-21T05:43:50;76513.59;;;-146.65;85.98
57094;BME280;42970;50.996;3.706;2022-08-21T05:46:16;76513.59;;;-146.65;86.17
57094;BME280;42970;50.996;3.706;2022-08-21T05:48:41;76505.53;;;-146.65;86.03
57094;BME280;42970;50.996;3.706;2022-08-21T05:51:15;76505.53;;;-146.65;85.68
57094;BME280;42970;50.996;3.706;2022-08-21T05:53:42;76497.47;;;-146.65;85.84
57094;BME280;42970;50.996;3.706;2022-08-21T05:56:09;76489.41;;;-146.65;86.09
57094;BME280;42970;50.996;3.706;2022-08-21T05:58:34;76481.31;;;-146.65;86.14
57094;BME280;42970;50.996;3.706;2022-08-21T06:01:02;76473.25;;;-146.65;86.07
57094;BME280;42970;50.996;3.706;2022-08-21T06:03:31;76457.13;;;-146.65;86.05
57094;BME280;42970;50.996;3.706;2022-08-21T06:05:57;76443.00;;;-146.65;85.70
57094;BME280;42970;50.996;3.706;2022-08-21T06:08:24;76434.94;;;-146.65;85.54
57094;BME280;42970;50.996;3.706;2022-08-21T06:10:51;76424.84;;;-146.65;85.38
57094;BME280;42970;50.996;3.706;2022-08-21T06:13:19;76404.66;;;-146.65;84.78
57094;BME280;42970;50.996;3.706;2022-08-21T06:15:45;76388.53;;;-146.65;84.33
57094;BME280;42970;50.996;3.706;2022-08-21T06:18:11;76374.41;;;-146.65;84.37
57094;BME280;42970;50.996;3.706;2022-08-21T06:20:37;76364.31;;;-146.65;84.16
57094;BME280;42970;50.996;3.706;2022-08-21T06:23:03;76356.25;;;-146.65;83.91
57094;BME280;42970;50.996;3.706;2022-08-21T06:25:28;76342.13;;;-146.65;83.75
57094;BME280;42970;50.996;3.706;2022-08-21T06:28:07;76323.97;;;-146.65;83.66
57094;BME280;42970;50.996;3.706;2022-08-21T06:30:33;76309.84;;;-146.65;83.78
57094;BME280;42970;50.996;3.706;2022-08-21T06:32:59;76295.72;;;-146.65;83.65
57094;BME280;42970;50.996;3.706;2022-08-21T06:35:25;76287.66;;;-146.65;83.43
57094;BME280;42970;50.996;3.706;2022-08-21T06:37:51;76267.47;;;-146.65;82.92
57094;BME280;42970;50.996;3.706;2022-08-21T06:40:17;76267.47;;;-146.65;82.95
57094;BME280;42970;50.996;3.706;2022-08-21T06:42:42;76243.28;;;-146.65;82.49
57094;BME280;42970;50.996;3.706;2022-08-21T06:45:08;76223.09;;;-146.65;82.01
57094;BME280;42970;50.996;3.706;2022-08-21T06:47:33;76215.03;;;-146.65;81.90
57094;BME280;42970;50.996;3.706;2022-08-21T06:49:59;76194.84;;;-146.65;81.96
57094;BME280;42970;50.996;3.706;2022-08-21T06:52:25;76180.72;;;-146.65;81.45
57094;BME280;42970;50.996;3.706;2022-08-21T06:54:50;76168.63;;;-146.65;81.59
57094;BME280;42970;50.996;3.706;2022-08-21T06:57:15;76154.50;;;-146.65;80.73
57094;BME280;42970;50.996;3.706;2022-08-21T06:59:41;76150.47;;;-146.65;80.42
57094;BME280;42970;50.996;3.706;2022-08-21T07:02:06;76124.25;;;-146.65;80.07
57094;BME280;42970;50.996;3.706;2022-08-21T07:04:33;76089.94;;;-146.65;79.69
57094;BME280;42970;50.996;3.706;2022-08-21T07:06:58;76061.72;;;-146.65;78.74
57094;BME280;42970;50.996;3.706;2022-08-21T07:09:24;76047.59;;;-146.65;78.38
57094;BME280;42970;50.996;3.706;2022-08-21T07:11:51;76029.44;;;-146.65;77.72
57094;BME280;42970;50.996;3.706;2022-08-21T07:14:18;76013.28;;;-146.65;77.12
57094;BME280;42970;50.996;3.706;2022-08-21T07:16:43;76013.28;;;-146.65;76.55
57094;BME280;42970;50.996;3.706;2022-08-21T07:19:09;75985.03;;;-146.65;76.48
57094;BME280;42970;50.996;3.706;2022-08-21T07:21:35;75987.06;;;-146.65;76.71
57094;BME280;42970;50.996;3.706;2022-08-21T07:24:00;75970.94;;;-146.65;75.88
57094;BME280;42970;50.996;3.706;2022-08-21T07:26:26;75956.81;;;-146.65;75.77
57094;BME280;42970;50.996;3.706;2022-08-21T07:28:52;75962.84;;;-146.65;76.39
57094;BME280;42970;50.996;3.706;2022-08-21T07:31:19;75964.88;;;-146.65;75.59
57094;BME280;42970;50.996;3.706;2022-08-21T07:33:46;75964.88;;;-146.65;76.41
57094;BME280;42970;50.996;3.706;2022-08-21T07:36:11;75954.78;;;-146.65;76.09
57094;BME280;42970;50.996;3.706;2022-08-21T07:38:37;75938.66;;;-146.65;75.72
57094;BME280;42970;50.996;3.706;2022-08-21T07:41:10;75920.50;;;-146.65;75.15
57094;BME280;42970;50.996;3.706;2022-08-21T07:43:37;75912.44;;;-146.65;74.81
57094;BME280;42970;50.996;3.706;2022-08-21T07:46:02;75920.50;;;-146.65;73.41
57094;BME280;42970;50.996;3.706;2022-08-21T07:48:28;75912.44;;;-146.65;73.05
57094;BME280;42970;50.996;3.706;2022-08-21T07:50:53;75904.34;;;-146.65;72.25
57094;BME280;42970;50.996;3.706;2022-08-21T07:53:20;75902.34;;;-146.65;71.33
57094;BME280;42970;50.996;3.706;2022-08-21T07:55:45;75888.22;;;-146.65;71.29
57094;BME280;42970;50.996;3.706;2022-08-21T07:58:11;75882.16;;;-146.65;70.81
57094;BME280;42970;50.996;3.706;2022-08-21T08:00:36;75868.06;;;-146.65;70.71
57094;BME280;42970;50.996;3.706;2022-08-21T08:03:02;75859.97;;;-146.65;70.01
57094;BME280;42970;50.996;3.706;2022-08-21T08:05:29;75870.06;;;-146.65;71.03
57094;BME280;42970;50.996;3.706;2022-08-21T08:07:56;75872.09;;;-146.65;71.22
57094;BME280;42970;50.996;3.706;2022-08-21T08:10:22;75866.03;;;-146.65;70.53
57094;BME280;42970;50.996;3.706;2022-08-21T08:12:48;75851.91;;;-146.65;70.75
57094;BME280;42970;50.996;3.706;2022-08-21T08:15:18;75847.88;;;-146.65;69.92
57094;BME280;42970;50.996;3.706;2022-08-21T08:17:44;75847.88;;;-146.65;69.64
57094;BME280;42970;50.996;3.706;2022-08-21T08:20:11;75833.75;;;-146.65;69.30
57094;BME280;42970;50.996;3.706;2022-08-21T08:22:38;75801.47;;;-146.65;68.93
57094;BME280;42970;50.996;3.706;2022-08-21T08:25:06;75791.41;;;-146.65;68.12
57094;BME280;42970;50.996;3.706;2022-08-21T08:27:33;75740.97;;;-146.65;68.70
57094;BME280;42970;50.996;3.706;2022-08-21T08:29:58;75742.97;;;-146.65;67.17
57094;BME280;42970;50.996;3.706;2022-08-21T08:32:24;75738.94;;;-146.65;66.07
57094;BME280;42970;50.996;3.706;2022-08-21T08:34:50;75706.69;;;-146.65;65.44
57094;BME280;42970;50.996;3.706;2022-08-21T08:37:17;75712.72;;;-146.65;65.46
57094;BME280;42970;50.996;3.706;2022-08-21T08:39:43;75704.66;;;-146.65;64.69
57094;BME280;42970;50.996;3.706;2022-08-21T08:42:13;75642.13;;;-146.65;64.02
57094;BME280;42970;50.996;3.706;2022-08-21T08:44:45;75589.69;;;-146.65;63.85
57094;BME280;42970;50.996;3.706;2022-08-21T08:47:13;75611.88;;;-146.65;63.04
57094;BME280;42970;50.996;3.706;2022-08-21T08:52:54;75523.13;;;-146.65;61.48
57094;BME280;42970;50.996;3.706;2022-08-21T08:55:43;75553.38;;;-146.65;60.25
57094;BME280;42970;50.996;3.706;2022-08-21T08:58:16;75523.13;;;-146.65;59.53
57094;BME280;42970;50.996;3.706;2022-08-21T09:00:46;75549.34;;;-146.65;59.89
57094;BME280;42970;50.996;3.706;2022-08-21T09:03:12;75611.88;;;-146.65;59.63
57094;BME280;42970;50.996;3.706;2022-08-21T09:06:00;75638.09;;;-146.65;61.44
57094;BME280;42970;50.996;3.706;2022-08-21T09:11:04;75613.88;;;-146.65;60.92
57094;BME280;42970;50.996;3.706;2022-08-21T09:16:41;75652.22;;;-146.65;60.85
57094;BME280;42970;50.996;3.706;2022-08-21T09:22:26;75553.38;;;-146.65;58.95
57094;BME280;42970;50.996;3.706;2022-08-21T09:25:18;75515.06;;;-146.65;58.31
57094;BME280;42970;50.996;3.706;2022-08-21T09:27:45;75521.09;;;-146.65;57.99
57094;BME280;42970;50.996;3.706;2022-08-21T09:30:17;75486.81;;;-146.65;56.68
57094;BME280;42970;50.996;3.706;2022-08-21T09:32:43;75523.13;;;-146.65;57.01
57094;BME280;42970;50.996;3.706;2022-08-21T09:35:20;75482.78;;;-146.65;56.87
57094;BME280;42970;50.996;3.706;2022-08-21T09:40:39;75404.13;;;-146.65;54.25
57094;BME280;42970;50.996;3.706;2022-08-21T09:45:38;75392.00;;;-146.65;54.11
57094;BME280;42970;50.996;3.706;2022-08-21T09:50:39;75392.00;;;-146.65;52.38
57094;BME280;42970;50.996;3.706;2022-08-21T09:53:05;75339.56;;;-146.65;51.24
57094;BME280;42970;50.996;3.706;2022-08-21T09:55:49;75369.84;;;-146.65;51.24
57094;BME280;42970;50.996;3.706;2022-08-21T09:58:36;75303.28;;;-146.65;51.92
57094;BME280;42970;50.996;3.706;2022-08-21T10:01:05;75273.03;;;-146.65;49.32
57094;BME280;42970;50.996;3.706;2022-08-21T10:03:31;75315.38;;;-146.65;49.74
57094;BME280;42970;50.996;3.706;2022-08-21T10:06:02;75329.50;;;-146.65;50.39
57094;BME280;42970;50.996;3.706;2022-08-21T10:08:32;75369.84;;;-146.65;50.50
57094;BME280;42970;50.996;3.706;2022-08-21T10:11:05;75349.66;;;-146.65;49.75
57094;BME280;42970;50.996;3.706;2022-08-21T10:27:36;75216.53;;;-146.65;48.48
57094;BME280;42970;50.996;3.706;2022-08-21T10:30:14;75222.59;;;-146.65;48.69
57094;BME280;42970;50.996;3.706;2022-08-21T10:35:22;75147.97;;;-146.65;45.93
57094;BME280;42970;50.996;3.706;2022-08-21T10:47:04;75258.91;;;-146.65;46.98
57094;BME280;42970;50.996;3.706;2022-08-21T10:55:26;75087.47;;;-146.65;43.35
57094;BME280;42970;50.996;3.706;2022-08-21T10:58:02;75012.84;;;-146.65;41.90
57094;BME280;42970;50.996;3.706;2022-08-21T11:06:05;75291.16;;;-146.65;44.76
57094;BME280;42970;50.996;3.706;2022-08-21T11:08:39;75283.09;;;-146.65;45.49
57094;BME280;42970;50.996;3.706;2022-08-21T11:11:12;75283.09;;;-146.65;44.96
57094;BME280;42970;50.996;3.706;2022-08-21T11:13:44;75277.06;;;-146.65;45.75
57094;BME280;42970;50.996;3.706;2022-08-21T11:21:49;75129.81;;;-146.65;43.26
57094;BME280;42970;50.996;3.706;2022-08-21T11:24:55;74956.38;;;-146.65;40.65
57094;BME280;42970;50.996;3.706;2022-08-21T11:27:26;75010.81;;;-146.65;42.24
57094;BME280;42970;50.996;3.706;2022-08-21T11:29:55;74786.97;;;-146.65;38.58
57094;BME280;42970;50.996;3.706;2022-08-21T11:35:44;74839.41;;;-146.65;39.80
57094;BME280;42970;50.996;3.706;2022-08-21T11:38:42;74821.25;;;-146.65;39.15
57094;BME280;42970;50.996;3.706;2022-08-21T11:41:28;74851.50;;;-146.65;39.60
57094;BME280;42970;50.996;3.706;2022-08-21T11:52:16;75214.53;;;-146.65;44.19
57094;BME280;42970;50.996;3.706;2022-08-21T11:54:45;75287.13;;;-146.65;46.27
57094;BME280;42970;50.996;3.706;2022-08-21T12:00:00;75264.94;;;-146.65;46.31
57094;BME280;42970;50.996;3.706;2022-08-21T12:02:34;75299.25;;;-146.65;46.59
57094;BME280;42970;50.996;3.706;2022-08-21T12:05:05;75367.81;;;-146.65;47.81
57094;BME280;42970;50.996;3.706;2022-08-21T12:07:36;75321.41;;;-146.65;47.71
57094;BME280;42970;50.996;3.706;2022-08-21T12:10:06;75295.19;;;-146.65;47.49
57094;BME280;42970;50.996;3.706;2022-08-21T12:12:34;75295.19;;;-146.65;47.12
57094;BME280;42970;50.996;3.706;2022-08-21T12:17:37;75254.88;;;-146.65;46.21
57094;BME280;42970;50.996;3.706;2022-08-21T12:23:03;75200.41;;;-146.65;46.01
57094;BME280;42970;50.996;3.706;2022-08-21T12:26:00;75220.56;;;-146.65;46.45
57094;BME280;42970;50.996;3.706;2022-08-21T12:28:27;75230.66;;;-146.65;45.89
57094;BME280;42970;50.996;3.706;2022-08-21T12:30:53;75123.78;;;-146.65;44.61
57094;BME280;42970;50.996;3.706;2022-08-21T12:33:29;75057.22;;;-146.65;43.29
57094;BME280;42970;50.996;3.706;2022-08-21T12:41:21;75061.25;;;-146.65;42.48
57094;BME280;42970;50.996;3.706;2022-08-21T12:44:10;75077.38;;;-146.65;43.25
57094;BME280;42970;50.996;3.706;2022-08-21T12:46:50;75186.28;;;-146.65;44.27
57094;BME280;42970;50.996;3.706;2022-08-21T12:49:26;75208.47;;;-146.65;44.79
57094;BME280;42970;50.996;3.706;2022-08-21T12:54:39;75200.41;;;-146.65;44.81
57094;BME280;42970;50.996;3.706;2022-08-21T12:57:06;75194.34;;;-146.65;44.25
57094;BME280;42970;50.996;3.706;2022-08-21T12:59:32;75210.50;;;-146.65;44.32
57094;BME280;42970;50.996;3.706;2022-08-21T13:02:03;75135.88;;;-146.65;43.99
57094;BME280;42970;50.996;3.706;2022-08-21T13:04:36;75035.03;;;-146.65;43.33
57094;BME280;42970;50.996;3.706;2022-08-21T13:07:08;75059.22;;;-146.65;43.03
57094;BME280;42970;50.996;3.706;2022-08-21T13:09:51;75075.38;;;-146.65;43.15
57094;BME280;42970;50.996;3.706;2022-08-21T13:12:18;75125.78;;;-146.65;43.32
57094;BME280;42970;50.996;3.706;2022-08-21T13:14:45;75105.63;;;-146.65;44.46
57094;BME280;42970;50.996;3.706;2022-08-21T13:17:17;75055.19;;;-146.65;43.22
57094;BME280;42970;50.996;3.706;2022-08-21T13:22:20;75109.66;;;-146.65;42.96
57094;BME280;42970;50.996;3.706;2022-08-21T13:24:47;75133.84;;;-146.65;43.91
57094;BME280;42970;50.996;3.706;2022-08-21T13:27:22;75097.56;;;-146.65;42.94
57094;BME280;42970;50.996;3.706;2022-08-21T13:29:47;75065.28;;;-146.65;42.49
57094;BME280;42970;50.996;3.706;2022-08-21T13:32:21;75039.06;;;-146.65;41.95
57094;BME280;42970;50.996;3.706;2022-08-21T13:34:49;75081.41;;;-146.65;42.82
57094;BME280;42970;50.996;3.706;2022-08-21T13:37:15;75101.59;;;-146.65;43.06
57094;BME280;42970;50.996;3.706;2022-08-21T13:39:40;75123.78;;;-146.65;43.50
57094;BME280;42970;50.996;3.706;2022-08-21T13:42:11;75154.03;;;-146.65;44.23
57094;BME280;42970;50.996;3.706;2022-08-21T13:44:42;75150.00;;;-146.65;44.29
57094;BME280;42970;50.996;3.706;2022-08-21T13:47:11;75145.94;;;-146.65;43.84
57094;BME280;42970;50.996;3.706;2022-08-21T13:49:40;75145.94;;;-146.65;44.46
57094;BME280;42970;50.996;3.706;2022-08-21T13:52:25;75137.88;;;-146.65;44.78
57094;BME280;42970;50.996;3.706;2022-08-21T13:55:11;75186.28;;;-146.65;44.93
57094;BME280;42970;50.996;3.706;2022-08-21T13:57:37;75170.16;;;-146.65;44.52
57094;BME280;42970;50.996;3.706;2022-08-21T14:00:24;75156.03;;;-146.65;44.85
57094;BME280;42970;50.996;3.706;2022-08-21T14:02:52;75202.44;;;-146.65;45.11
57094;BME280;42970;50.996;3.706;2022-08-21T14:05:26;75216.53;;;-146.65;45.50
57094;BME280;42970;50.996;3.706;2022-08-21T14:08:03;75230.66;;;-146.65;45.49
57094;BME280;42970;50.996;3.706;2022-08-21T14:10:29;75234.69;;;-146.65;46.22
57094;BME280;42970;50.996;3.706;2022-08-21T14:12:57;75214.53;;;-146.65;46.03
57094;BME280;42970;50.996;3.706;2022-08-21T14:15:26;75230.66;;;-146.65;45.83
57094;BME280;42970;50.996;3.706;2022-08-21T14:17:54;75222.59;;;-146.65;46.23
57094;BME280;42970;50.996;3.706;2022-08-21T14:20:33;75208.47;;;-146.65;46.13
57094;BME280;42970;50.996;3.706;2022-08-21T14:22:59;75218.56;;;-146.65;46.88